METAR Data
IDs: Format: Raw Decoded Include TAF

Data at: 0759 UTC 11 Dec 2018

PPIT 110756Z AUTO 31030G33KT 1SM -SN BR OVC016 M07/M08 A2879 RMK AO2 PK WND 31034/0756 SLP749 P0000 T10721078 FZRANO TSNO
PPIT 110752Z AUTO 31027G32KT 1SM -SN BR OVC018 M07/M08 A2879 RMK AO2 PK WND 31033/0743 P0000 FZRANO TSNO
PPIT 110733Z AUTO 31029KT 1SM -SN BR OVC013 M08/M08 A2878 RMK AO2 PK WND 31032/0722 P0000 FZRANO TSNO
PPIT 110656Z AUTO 31024KT 1SM -SN BR OVC015 M08/M08 A2877 RMK AO2 PK WND 32031/0636 SLP742 P0000 T10781083 FZRANO TSNO
PPIT 110642Z AUTO 32025G31KT 1SM -SN BR OVC015 M08/M08 A2875 RMK AO2 PK WND 32031/0636 P0000 FZRANO TSNO
PPIT 110556Z AUTO 32026KT 1 1/4SM -SN BR OVC020 M08/M08 A2874 RMK AO2 PK WND 32034/0504 SLP731 P0000 60000 T10781083 11072 21078 53015 FZRANO TSNO
PPIT 110456Z AUTO 32025G31KT 1 1/2SM -SN BR OVC027 M08/M08 A2871 RMK AO2 PK WND 33032/0444 SLP723 P0000 T10781083 FZRANO TSNO
PPIT 110413Z AUTO 33026G30KT 1 3/4SM -SN BR OVC027 M07/M08 A2870 RMK AO2 PK WND 32030/0412 P0000 FZRANO TSNO
PPIT 110356Z AUTO 33024KT 2 1/2SM -SN BR FEW018 OVC025 M07/M08 A2870 RMK AO2 PK WND 33028/0356 SLP718 P0000 T10721078 FZRANO TSNO
PPIT 110334Z AUTO 33022KT 2SM -SN BR OVC018 M07/M07 A2870 RMK AO2 PK WND 33028/0318 P0000 FZRANO TSNO
PPIT 110256Z AUTO 33023KT 1 3/4SM -SN BR OVC018 M07/M08 A2869 RMK AO2 PK WND 34026/0246 SLP717 P0000 60000 T10721078 53002 FZRANO TSNO
PPIT 110238Z AUTO 34021KT 1 1/2SM -SN BR OVC016 M07/M08 A2869 RMK AO2 PK WND 33026/0213 P0000 FZRANO TSNO
PPIT 110220Z AUTO 33018G26KT 1 1/4SM -SN BR OVC012 M08/M08 A2869 RMK AO2 PK WND 33026/0213 P0000 FZRANO TSNO
PPIT 110159Z AUTO 33020KT 1SM -SN BR BKN014 BKN020 OVC025 M08/M08 A2869 RMK AO2 P0000 FZRANO TSNO
PPIT 110156Z AUTO 33020KT 1 1/2SM -SN BR SCT014 OVC023 M08/M08 A2869 RMK AO2 SLP714 P0000 T10781083 FZRANO TSNO
PPIT 110145Z AUTO 34019KT 1 1/4SM -SN BR SCT014 OVC025 M08/M08 A2869 RMK AO2 P0000 FZRANO TSNO
PPIT 110143Z AUTO 33020KT 1SM -SN BR BKN014 OVC025 M08/M08 A2869 RMK AO2 P0000 FZRANO TSNO
PPIT 110117Z AUTO 33019KT 3/4SM -SN BR OVC012 M08/M08 A2868 RMK AO2 P0000 FZRANO TSNO
PPIT 110056Z AUTO 34021KT 1/2SM SN FZFG OVC012 M07/M08 A2869 RMK AO2 SLP714 P0000 T10721078 FZRANO TSNO
PPIT 110038Z AUTO 34021KT 1SM -SN BR BKN014 OVC022 M07/M08 A2869 RMK AO2 P0000 FZRANO TSNO
PPIT 102356Z AUTO 34020KT 1 1/4SM -SN BR BKN019 OVC024 M07/M08 A2868 RMK AO2 SLP713 P0000 60000 T10721078 11072 21089 56007 FZRANO TSNO
PPIT 102333Z AUTO 34018KT 1 1/4SM -SN BR BKN016 OVC024 M07/M08 A2868 RMK AO2 P0000 FZRANO TSNO
PPIT 102256Z AUTO 34021KT 1SM -SN BR OVC016 M08/M08 A2869 RMK AO2 SLP714 P0000 T10781083 FZRANO TSNO
PPIT 102233Z AUTO 34019KT 1SM -SN BR BKN013 OVC021 M08/M08 A2869 RMK AO2 P0000 FZRANO TSNO
PPIT 102156Z AUTO 34019KT 1 1/4SM -SN BR OVC018 M08/M08 A2869 RMK AO2 SLP717 P0000 T10781083 FZRANO TSNO
PPIT 102147Z AUTO 34018KT 1 3/4SM -SN BR OVC020 M08/M08 A2870 RMK AO2 P0000 FZRANO TSNO
PPIT 102056Z AUTO 34018G22KT 9SM -SN FEW012 OVC024 M08/M08 A2870 RMK AO2 SLP720 P0000 60000 T10781083 58006 FZRANO TSNO
PPIT 102033Z AUTO 35016KT 8SM -SN BKN028 OVC047 M08/M08 A2871 RMK AO2 P0000 FZRANO TSNO
PPIT 101956Z AUTO 35015KT 9SM -SN BKN049 OVC060 M08/M08 A2871 RMK AO2 SNB08E25B51 SLP723 P0000 T10781083 FZRANO TSNO
PPIT 101856Z AUTO 35015KT 10SM BKN095 OVC110 M08/M09 A2872 RMK AO2 SLP726 T10831089 FZRANO TSNO
PPIT 101756Z AUTO 01015KT 10SM OVC110 M08/M09 A2872 RMK AO2 SLP726 60000 T10831094 11078 21094 55011 FZRANO TSNO
PPIT 101656Z AUTO 36012KT 10SM FEW110 M09/M10 A2872 RMK AO2 SLP726 T10941100 FZRANO TSNO
PPIT 101634Z AUTO 36010KT 10SM SCT011 BKN120 M09/M10 A2872 RMK AO2 FZRANO TSNO
PPIT 101627Z AUTO 35010KT 10SM BKN011 M08/M09 A2873 RMK AO2 FZRANO TSNO
PPIT 101556Z AUTO 02013KT 10SM FEW011 M08/M09 A2873 RMK AO2 SLP730 T10831089 FZRANO TSNO
PPIT 101546Z AUTO 02013KT 10SM SCT013 M08/M09 A2874 RMK AO2 FZRANO TSNO
PPIT 101456Z AUTO 02010KT 10SM OVC013 M08/M08 A2876 RMK AO2 SLP737 60000 T10831083 56010 FZRANO TSNO
PPIT 101446Z AUTO 02011KT 10SM OVC013 M08/M09 A2876 RMK AO2 FZRANO TSNO
PPIT 101356Z AUTO 01009KT 10SM FEW010 BKN029 M09/M10 A2876 RMK AO2 SNE15 SLP739 P0000 T10891100 FZRANO TSNO
PPIT 101256Z AUTO 02014KT 9SM -SN OVC027 M08/M08 A2877 RMK AO2 SLP742 P0000 T10781083 FZRANO TSNO
PPIT 101236Z AUTO 02013KT 9SM -SN OVC029 M08/M09 A2878 RMK AO2 P0000 FZRANO TSNO
PPIT 101205Z AUTO 02016KT 4SM -SN BR OVC031 M08/M08 A2878 RMK AO2 P0000 FZRANO TSNO
PPIT 101156Z AUTO 02013KT 3SM -SN BR BKN029 OVC034 M08/M08 A2879 RMK AO2 SLP748 P0000 60000 T10781083 11078 21083 56014 FZRANO TSNO
PPIT 101142Z AUTO 02013KT 2 1/2SM -SN BR FEW022 OVC027 M08/M08 A2879 RMK AO2 P0000 FZRANO TSNO
PPIT 101135Z AUTO 02013KT 3SM -SN BR FEW016 OVC027 M08/M08 A2879 RMK AO2 P0000 FZRANO TSNO
PPIT 101056Z AUTO 03014KT 1 3/4SM -SN BR OVC018 M08/M09 A2880 RMK AO2 SLP752 P0000 T10781089 FZRANO TSNO
PPIT 101037Z AUTO 03012KT 2SM -SN BR BKN017 OVC023 M08/M09 A2881 RMK AO2 P0000 FZRANO TSNO
PPIT 101017Z AUTO 03012KT 1 3/4SM -SN BR BKN017 OVC025 M08/M09 A2881 RMK AO2 P0000 FZRANO TSNO
PPIT 101009Z AUTO 03014KT 2SM -SN BR BKN019 BKN025 OVC029 M08/M09 A2881 RMK AO2 P0000 FZRANO TSNO
PPIT 100956Z AUTO 03013KT 5SM -SN BR BKN024 OVC033 M08/M09 A2881 RMK AO2 SLP756 P0000 T10831089 FZRANO TSNO
PPIT 100856Z AUTO 03017KT 9SM -SN OVC049 M08/M09 A2883 RMK AO2 SNB42 SLP762 P0000 60000 T10831089 410561094 58020 FZRANO TSNO
PPIT 100756Z AUTO 04016KT 10SM OVC065 M08/M09 A2885 RMK AO2 SLP769 T10831089 FZRANO TSNO
PPIT 100656Z AUTO 04013G20KT 10SM SCT090 BKN120 M08/M09 A2887 RMK AO2 SLP777 T10831089 FZRANO TSNO
PPIT 100556Z AUTO 04013KT 10SM OVC110 M08/M09 A2889 RMK AO2 SLP782 T10831089 11056 21083 58009 FZRANO TSNO
PPIT 100456Z AUTO 05014KT 10SM OVC110 M07/M08 A2890 RMK AO2 SLP785 T10721078 FZRANO TSNO
PPIT 100356Z AUTO 04011KT 10SM FEW120 M07/M08 A2891 RMK AO2 SLP789 T10721078 FZRANO TSNO
PPIT 100256Z AUTO 04010KT 10SM FEW120 M07/M08 A2891 RMK AO2 SLP791 T10721078 58016 FZRANO TSNO
PPIT 100220Z AUTO 04009KT 10SM SCT026 M07/M07 A2892 RMK AO2 FZRANO TSNO
PPIT 100156Z AUTO 05009KT 10SM OVC026 M07/M07 A2894 RMK AO2 SLP798 T10671072 FZRANO TSNO
PPIT 100056Z AUTO 05008KT 10SM OVC028 M06/M07 A2895 RMK AO2 SLP804 T10611067 FZRANO TSNO
PPIT 092356Z AUTO 05009KT 10SM OVC028 M06/M06 A2896 RMK AO2 SLP807 60000 T10561061 11056 21067 56014 FZRANO TSNO
PPIT 092321Z AUTO 04007KT 10SM OVC028 M06/M06 A2897 RMK AO2 FZRANO TSNO
PPIT 092256Z AUTO 04009KT 10SM OVC030 M06/M06 A2897 RMK AO2 SLP812 T10561061 FZRANO TSNO
PPIT 092156Z AUTO 02006KT 10SM OVC030 M06/M06 A2899 RMK AO2 SLP817 T10561061 FZRANO TSNO
PPIT 092056Z AUTO 05003KT 10SM OVC032 M06/M06 A2900 RMK AO2 SNE04 SLP822 P0000 60000 T10611061 50001 FZRANO TSNO